Time,TemperatureF,DewpointF,PressureIn,WindDirection,WindDirectionDegrees,WindSpeedMPH,WindSpeedGustMPH,Humidity,HourlyPrecipIn,Conditions,Clouds,dailyrainin,SoftwareType,DateUTC
2013-05-20 00:01:00,58.8,58.8,26.84,East,90,0.0,2.0,100,0.00,,,-99.99,VWS V12.07,2013-05-20 04:01:00,
2013-05-20 00:32:00,58.2,58.2,26.84,East,80,0.0,0.0,100,0.00,,,-99.99,VWS V12.07,2013-05-20 04:32:00,
2013-05-20 01:01:00,57.2,57.2,26.83,East,86,0.0,1.0,100,0.01,,,-99.99,VWS V12.07,2013-05-20 05:01:00,
2013-05-20 01:31:00,56.8,56.8,26.84,East,85,1.0,2.0,100,0.01,,,-99.99,VWS V12.07,2013-05-20 05:31:00,
2013-05-20 02:02:00,57.1,57.1,26.84,East,84,0.0,0.0,100,0.00,,,-99.99,VWS V12.07,2013-05-20 06:02:00,
2013-05-20 02:31:00,57.4,57.4,26.83,East,83,0.0,0.0,100,0.00,,,-99.99,VWS V12.07,2013-05-20 06:31:00,
2013-05-20 03:01:00,56.8,56.8,26.83,East,84,0.0,2.0,100,0.00,,,-99.99,VWS V12.07,2013-05-20 07:01:00,
2013-05-20 03:31:00,57.3,57.3,26.82,East,85,0.0,3.0,100,0.00,,,-99.99,VWS V12.07,2013-05-20 07:31:00,
2013-05-20 04:01:00,57.4,57.4,26.82,ENE,75,0.0,2.0,100,0.00,,,-99.99,VWS V12.07,2013-05-20 08:01:00,
2013-05-20 04:31:00,57.3,57.3,26.83,ENE,74,0.0,0.0,100,0.00,,,-99.99,VWS V12.07,2013-05-20 08:31:00,
2013-05-20 05:01:00,57.4,57.4,26.83,East,79,0.0,0.0,100,0.00,,,-99.99,VWS V12.07,2013-05-20 09:01:00,
2013-05-20 05:31:00,57.6,57.6,26.83,ENE,76,0.0,2.0,100,0.00,,,-99.99,VWS V12.07,2013-05-20 09:31:00,
2013-05-20 06:01:00,57.0,57.0,26.84,SSE,161,0.0,0.0,100,0.00,,,-99.99,VWS V12.07,2013-05-20 10:01:00,
2013-05-20 06:31:00,57.4,57.4,26.85,South,180,0.0,0.0,100,0.00,,,-99.99,VWS V12.07,2013-05-20 10:31:00,
2013-05-20 07:01:00,58.6,58.6,26.85,SSE,166,0.0,3.0,100,0.00,,,-99.99,VWS V12.07,2013-05-20 11:01:00,
2013-05-20 07:31:00,58.3,58.3,26.86,South,170,0.0,0.0,100,0.02,,,-99.99,VWS V12.07,2013-05-20 11:31:00,
2013-05-20 08:01:00,60.2,60.2,26.88,SSW,197,0.0,3.0,100,0.03,,,-99.99,VWS V12.07,2013-05-20 12:01:00,
2013-05-20 08:31:00,61.6,61.6,26.89,South,170,2.0,2.0,100,0.01,,,-99.99,VWS V12.07,2013-05-20 12:31:00,
2013-05-20 09:01:00,61.3,61.3,26.89,SW,235,7.0,9.0,100,0.00,,,-99.99,VWS V12.07,2013-05-20 13:01:00,
2013-05-20 09:31:00,58.8,58.8,26.88,SW,224,0.0,0.0,100,0.07,,,-99.99,VWS V12.07,2013-05-20 13:31:00,
2013-05-20 10:01:00,58.8,58.8,26.89,SSW,202,0.0,4.0,100,0.11,,,-99.99,VWS V12.07,2013-05-20 14:01:00,
2013-05-20 10:31:00,60.5,60.5,26.88,SSW,212,0.0,4.0,100,0.06,,,-99.99,VWS V12.07,2013-05-20 14:31:00,
2013-05-20 11:01:00,62.7,62.7,26.89,SW,218,3.0,4.0,100,0.01,,,-99.99,VWS V12.07,2013-05-20 15:01:00,
2013-05-20 11:31:00,63.0,63.0,26.88,WSW,240,1.0,3.0,100,0.01,,,-99.99,VWS V12.07,2013-05-20 15:31:00,
2013-05-20 12:01:00,63.3,63.3,26.88,West,273,1.0,4.0,100,0.02,,,-99.99,VWS V12.07,2013-05-20 16:01:00,
2013-05-20 12:31:00,64.5,64.5,26.88,West,263,3.0,3.0,100,0.01,,,-99.99,VWS V12.07,2013-05-20 16:31:00,
2013-05-20 13:01:00,67.4,67.4,26.87,WSW,253,0.0,0.0,100,0.00,,,-99.99,VWS V12.07,2013-05-20 17:01:00,
2013-05-20 13:31:00,68.9,67.1,26.87,WNW,298,5.0,7.0,94,0.00,,,-99.99,VWS V12.07,2013-05-20 17:31:00,
2013-05-20 14:01:00,70.5,66.8,26.86,WNW,283,5.0,14.0,88,0.00,,,-99.99,VWS V12.07,2013-05-20 18:01:00,
2013-05-20 14:31:00,71.9,66.8,26.85,SW,214,2.0,4.0,84,0.00,,,-99.99,VWS V12.07,2013-05-20 18:31:00,
2013-05-20 15:01:00,73.9,67.0,26.84,SSW,195,8.0,9.0,79,0.00,,,-99.99,VWS V12.07,2013-05-20 19:01:00,
2013-05-20 15:31:00,73.7,66.1,26.82,SW,222,0.0,9.0,77,0.00,,,-99.99,VWS V12.07,2013-05-20 19:31:00,
2013-05-20 16:01:00,73.9,67.0,26.82,SSE,161,0.0,0.0,79,0.00,,,-99.99,VWS V12.07,2013-05-20 20:01:00,
2013-05-20 16:31:00,73.3,65.7,26.83,South,176,0.0,6.0,77,0.00,,,-99.99,VWS V12.07,2013-05-20 20:31:00,
2013-05-20 17:01:00,73.1,64.3,26.83,WSW,245,0.0,0.0,74,0.00,,,-99.99,VWS V12.07,2013-05-20 21:01:00,
2013-05-20 17:31:00,71.7,64.5,26.83,West,277,0.0,0.0,78,0.00,,,-99.99,VWS V12.07,2013-05-20 21:31:00,
2013-05-20 18:02:00,72.1,64.5,26.83,North,351,0.0,0.0,77,0.00,,,-99.99,VWS V12.07,2013-05-20 22:02:00,
2013-05-20 18:31:00,68.7,66.9,26.83,ENE,57,0.0,6.0,94,0.00,,,-99.99,VWS V12.07,2013-05-20 22:31:00,
2013-05-20 19:02:00,67.4,67.4,26.83,NE,41,4.0,5.0,100,0.00,,,-99.99,VWS V12.07,2013-05-20 23:02:00,
2013-05-20 19:31:00,66.2,66.2,26.84,NE,50,0.0,4.0,100,0.00,,,-99.99,VWS V12.07,2013-05-20 23:31:00,
2013-05-20 20:01:00,65.3,65.3,26.85,East,91,0.0,0.0,100,0.00,,,-99.99,VWS V12.07,2013-05-21 00:01:00,
2013-05-20 20:31:00,64.8,64.8,26.85,ENE,65,0.0,0.0,100,0.00,,,-99.99,VWS V12.07,2013-05-21 00:31:00,
2013-05-20 21:02:00,64.2,64.2,26.85,ENE,70,0.0,0.0,100,0.00,,,-99.99,VWS V12.07,2013-05-21 01:02:00,
2013-05-20 21:31:00,63.3,63.3,26.85,ENE,70,0.0,0.0,100,0.00,,,-99.99,VWS V12.07,2013-05-21 01:31:00,
2013-05-20 22:02:00,62.7,62.7,26.85,ENE,69,0.0,0.0,100,0.00,,,-99.99,VWS V12.07,2013-05-21 02:02:00,
2013-05-20 22:31:00,61.7,61.7,26.84,ENE,67,0.0,0.0,100,0.00,,,-99.99,VWS V12.07,2013-05-21 02:31:00,
2013-05-20 23:02:00,61.7,61.7,26.83,ENE,66,0.0,0.0,100,0.00,,,-99.99,VWS V12.07,2013-05-21 03:02:00,
2013-05-20 23:32:00,61.9,61.9,26.81,SE,133,0.0,0.0,100,0.00,,,-99.99,VWS V12.07,2013-05-21 03:32:00,